sensor_id;sensor_type;location;lat;lon;timestamp;P1;durP1;ratioP1;P2;durP2;ratioP2
6926;SDS011;3503;50.07605000;8.86719200;2024-02-21T00:13:18;28.07;;;6.03;;
6926;SDS011;3503;50.07605000;8.86719200;2024-02-21T00:28:21;24.40;;;5.80;;
6926;SDS011;3503;50.07605000;8.86719200;2024-02-21T00:43:24;12.87;;;7.10;;
6926;SDS011;3503;50.07605000;8.86719200;2024-02-21T00:58:27;22.63;;;7.63;;
6926;SDS011;3503;50.07605000;8.86719200;2024-02-21T01:13:30;18.70;;;7.13;;
6926;SDS011;3503;50.07605000;8.86719200;2024-02-21T01:28:33;18.77;;;6.80;;
6926;SDS011;3503;50.07605000;8.86719200;2024-02-21T01:43:36;18.43;;;7.37;;
6926;SDS011;3503;50.07605000;8.86719200;2024-02-21T01:58:39;21.60;;;9.50;;
6926;SDS011;3503;50.07605000;8.86719200;2024-02-21T02:13:43;20.20;;;7.73;;
6926;SDS011;3503;50.07605000;8.86719200;2024-02-21T02:28:46;14.23;;;7.30;;
6926;SDS011;3503;50.07605000;8.86719200;2024-02-21T02:43:49;19.47;;;7.60;;
6926;SDS011;3503;50.07605000;8.86719200;2024-02-21T02:58:52;25.23;;;7.07;;
6926;SDS011;3503;50.07605000;8.86719200;2024-02-21T03:13:55;21.80;;;7.90;;
6926;SDS011;3503;50.07605000;8.86719200;2024-02-21T03:28:59;28.53;;;7.33;;
6926;SDS011;3503;50.07605000;8.86719200;2024-02-21T03:44:01;19.03;;;6.97;;
6926;SDS011;3503;50.07605000;8.86719200;2024-02-21T03:59:04;25.17;;;8.10;;
6926;SDS011;3503;50.07605000;8.86719200;2024-02-21T04:14:07;25.57;;;7.90;;
6926;SDS011;3503;50.07605000;8.86719200;2024-02-21T04:29:12;22.37;;;7.00;;
6926;SDS011;3503;50.07605000;8.86719200;2024-02-21T04:44:15;21.90;;;7.80;;
6926;SDS011;3503;50.07605000;8.86719200;2024-02-21T04:59:18;18.53;;;7.27;;
6926;SDS011;3503;50.07605000;8.86719200;2024-02-21T05:14:22;19.53;;;8.07;;
6926;SDS011;3503;50.07605000;8.86719200;2024-02-21T05:29:25;27.53;;;7.93;;
6926;SDS011;3503;50.07605000;8.86719200;2024-02-21T05:44:28;26.43;;;9.30;;
6926;SDS011;3503;50.07605000;8.86719200;2024-02-21T05:59:31;16.20;;;8.27;;
6926;SDS011;3503;50.07605000;8.86719200;2024-02-21T06:14:34;24.73;;;7.40;;
6926;SDS011;3503;50.07605000;8.86719200;2024-02-21T06:29:37;29.57;;;7.30;;
6926;SDS011;3503;50.07605000;8.86719200;2024-02-21T06:44:40;19.17;;;7.40;;
6926;SDS011;3503;50.07605000;8.86719200;2024-02-21T06:59:43;28.77;;;7.87;;
6926;SDS011;3503;50.07605000;8.86719200;2024-02-21T07:14:46;16.03;;;6.40;;
6926;SDS011;3503;50.07605000;8.86719200;2024-02-21T07:29:49;19.77;;;6.27;;
6926;SDS011;3503;50.07605000;8.86719200;2024-02-21T07:44:52;14.13;;;4.73;;
6926;SDS011;3503;50.07605000;8.86719200;2024-02-21T07:59:55;23.00;;;5.50;;
6926;SDS011;3503;50.07605000;8.86719200;2024-02-21T08:14:58;17.70;;;5.47;;
6926;SDS011;3503;50.07605000;8.86719200;2024-02-21T08:30:01;14.67;;;4.67;;
6926;SDS011;3503;50.07605000;8.86719200;2024-02-21T08:45:04;12.60;;;4.73;;
6926;SDS011;3503;50.07605000;8.86719200;2024-02-21T09:00:09;15.37;;;4.37;;
6926;SDS011;3503;50.07605000;8.86719200;2024-02-21T09:15:14;14.83;;;4.20;;
6926;SDS011;3503;50.07605000;8.86719200;2024-02-21T09:30:17;13.67;;;4.77;;
6926;SDS011;3503;50.07605000;8.86719200;2024-02-21T09:45:22;13.47;;;4.90;;
6926;SDS011;3503;50.07605000;8.86719200;2024-02-21T10:00:25;13.80;;;4.50;;
6926;SDS011;3503;50.07605000;8.86719200;2024-02-21T10:15:29;12.27;;;4.50;;
6926;SDS011;3503;50.07605000;8.86719200;2024-02-21T10:30:32;11.67;;;4.20;;
6926;SDS011;3503;50.07605000;8.86719200;2024-02-21T10:45:35;14.37;;;4.97;;
6926;SDS011;3503;50.07605000;8.86719200;2024-02-21T11:00:38;9.33;;;3.37;;
6926;SDS011;3503;50.07605000;8.86719200;2024-02-21T11:15:44;11.07;;;3.90;;
6926;SDS011;3503;50.07605000;8.86719200;2024-02-21T11:30:49;17.27;;;4.77;;
6926;SDS011;3503;50.07605000;8.86719200;2024-02-21T11:45:59;18.23;;;4.90;;
6926;SDS011;3503;50.07605000;8.86719200;2024-02-21T12:01:02;12.40;;;4.20;;
6926;SDS011;3503;50.07605000;8.86719200;2024-02-21T12:16:06;11.70;;;4.60;;
6926;SDS011;3503;50.07605000;8.86719200;2024-02-21T12:31:09;11.80;;;3.90;;
6926;SDS011;3503;50.07605000;8.86719200;2024-02-21T12:46:12;13.50;;;4.10;;
6926;SDS011;3503;50.07605000;8.86719200;2024-02-21T13:01:15;18.00;;;4.70;;
6926;SDS011;3503;50.07605000;8.86719200;2024-02-21T13:16:18;13.37;;;3.70;;
6926;SDS011;3503;50.07605000;8.86719200;2024-02-21T13:31:21;11.97;;;3.50;;
6926;SDS011;3503;50.07605000;8.86719200;2024-02-21T13:46:24;15.00;;;3.17;;
6926;SDS011;3503;50.07605000;8.86719200;2024-02-21T14:01:28;17.40;;;4.00;;
6926;SDS011;3503;50.07605000;8.86719200;2024-02-21T14:16:31;13.07;;;3.80;;
6926;SDS011;3503;50.07605000;8.86719200;2024-02-21T14:31:34;8.33;;;2.70;;
6926;SDS011;3503;50.07605000;8.86719200;2024-02-21T14:46:37;9.50;;;2.60;;
6926;SDS011;3503;50.07605000;8.86719200;2024-02-21T15:01:40;12.57;;;3.20;;
6926;SDS011;3503;50.07605000;8.86719200;2024-02-21T15:16:43;10.40;;;2.87;;
6926;SDS011;3503;50.07605000;8.86719200;2024-02-21T15:31:46;18.33;;;3.80;;
6926;SDS011;3503;50.07605000;8.86719200;2024-02-21T15:46:49;13.10;;;3.37;;
6926;SDS011;3503;50.07605000;8.86719200;2024-02-21T16:01:54;10.00;;;3.17;;
6926;SDS011;3503;50.07605000;8.86719200;2024-02-21T16:16:57;9.27;;;3.17;;
6926;SDS011;3503;50.07605000;8.86719200;2024-02-21T16:32:00;13.83;;;4.13;;
6926;SDS011;3503;50.07605000;8.86719200;2024-02-21T16:47:04;9.40;;;3.50;;
6926;SDS011;3503;50.07605000;8.86719200;2024-02-21T17:02:07;12.93;;;4.10;;
6926;SDS011;3503;50.07605000;8.86719200;2024-02-21T17:17:10;6.50;;;2.70;;
6926;SDS011;3503;50.07605000;8.86719200;2024-02-21T17:32:15;13.60;;;4.00;;
6926;SDS011;3503;50.07605000;8.86719200;2024-02-21T17:47:19;8.40;;;3.70;;
6926;SDS011;3503;50.07605000;8.86719200;2024-02-21T18:02:22;10.27;;;3.63;;
6926;SDS011;3503;50.07605000;8.86719200;2024-02-21T18:17:25;6.00;;;2.30;;
6926;SDS011;3503;50.07605000;8.86719200;2024-02-21T18:32:28;13.20;;;2.70;;
6926;SDS011;3503;50.07605000;8.86719200;2024-02-21T18:47:31;7.27;;;2.00;;
6926;SDS011;3503;50.07605000;8.86719200;2024-02-21T19:02:35;5.20;;;2.63;;
6926;SDS011;3503;50.07605000;8.86719200;2024-02-21T19:17:39;8.20;;;2.53;;
6926;SDS011;3503;50.07605000;8.86719200;2024-02-21T19:32:42;8.87;;;3.03;;
6926;SDS011;3503;50.07605000;8.86719200;2024-02-21T19:47:46;11.50;;;3.23;;
6926;SDS011;3503;50.07605000;8.86719200;2024-02-21T20:02:49;9.37;;;3.10;;
6926;SDS011;3503;50.07605000;8.86719200;2024-02-21T20:17:53;7.90;;;3.10;;
6926;SDS011;3503;50.07605000;8.86719200;2024-02-21T20:32:57;7.40;;;2.73;;
6926;SDS011;3503;50.07605000;8.86719200;2024-02-21T20:48:01;6.20;;;1.50;;
6926;SDS011;3503;50.07605000;8.86719200;2024-02-21T21:03:04;8.23;;;2.20;;
6926;SDS011;3503;50.07605000;8.86719200;2024-02-21T21:18:07;7.17;;;2.97;;
6926;SDS011;3503;50.07605000;8.86719200;2024-02-21T21:33:10;11.67;;;3.10;;
6926;SDS011;3503;50.07605000;8.86719200;2024-02-21T21:48:13;8.03;;;3.33;;
6926;SDS011;3503;50.07605000;8.86719200;2024-02-21T22:03:16;9.37;;;3.10;;
6926;SDS011;3503;50.07605000;8.86719200;2024-02-21T22:18:20;6.63;;;2.10;;
6926;SDS011;3503;50.07605000;8.86719200;2024-02-21T22:33:23;3.50;;;2.27;;
6926;SDS011;3503;50.07605000;8.86719200;2024-02-21T22:48:26;6.50;;;2.40;;
6926;SDS011;3503;50.07605000;8.86719200;2024-02-21T23:03:29;15.70;;;2.43;;
6926;SDS011;3503;50.07605000;8.86719200;2024-02-21T23:18:32;5.93;;;2.37;;
6926;SDS011;3503;50.07605000;8.86719200;2024-02-21T23:33:36;7.10;;;2.50;;
6926;SDS011;3503;50.07605000;8.86719200;2024-02-21T23:48:39;5.97;;;2.30;;
